sensor_id;sensor_type;location;lat;lon;timestamp;temperature;humidity
7317;DHT22;3699;51.462;6.696;2023-06-14T00:00:35;20.20;28.50
7317;DHT22;3699;51.462;6.696;2023-06-14T00:03:04;20.20;28.40
7317;DHT22;3699;51.462;6.696;2023-06-14T00:05:31;20.20;28.80
7317;DHT22;3699;51.462;6.696;2023-06-14T00:08:00;20.10;29.00
7317;DHT22;3699;51.462;6.696;2023-06-14T00:10:27;20.10;28.70
7317;DHT22;3699;51.462;6.696;2023-06-14T00:12:56;20.10;29.10
7317;DHT22;3699;51.462;6.696;2023-06-14T00:15:25;20.10;29.10
7317;DHT22;3699;51.462;6.696;2023-06-14T00:17:51;20.00;29.30
7317;DHT22;3699;51.462;6.696;2023-06-14T00:20:20;20.00;29.40
7317;DHT22;3699;51.462;6.696;2023-06-14T00:22:47;20.00;29.60
7317;DHT22;3699;51.462;6.696;2023-06-14T00:25:15;19.90;29.70
7317;DHT22;3699;51.462;6.696;2023-06-14T00:27:41;19.90;30.00
7317;DHT22;3699;51.462;6.696;2023-06-14T00:30:09;19.90;29.80
7317;DHT22;3699;51.462;6.696;2023-06-14T00:32:36;19.90;29.80
7317;DHT22;3699;51.462;6.696;2023-06-14T00:35:03;19.80;29.70
7317;DHT22;3699;51.462;6.696;2023-06-14T00:37:30;19.80;29.90
7317;DHT22;3699;51.462;6.696;2023-06-14T00:39:56;19.70;30.30
7317;DHT22;3699;51.462;6.696;2023-06-14T00:42:25;19.70;30.20
7317;DHT22;3699;51.462;6.696;2023-06-14T00:44:52;19.70;30.00
7317;DHT22;3699;51.462;6.696;2023-06-14T00:47:19;19.60;30.70
7317;DHT22;3699;51.462;6.696;2023-06-14T00:49:46;19.60;31.10
7317;DHT22;3699;51.462;6.696;2023-06-14T00:52:14;19.60;31.40
7317;DHT22;3699;51.462;6.696;2023-06-14T00:54:41;19.60;31.70
7317;DHT22;3699;51.462;6.696;2023-06-14T00:57:09;19.60;32.60
7317;DHT22;3699;51.462;6.696;2023-06-14T00:59:42;19.60;32.90
7317;DHT22;3699;51.462;6.696;2023-06-14T01:02:09;19.50;32.20
7317;DHT22;3699;51.462;6.696;2023-06-14T01:04:36;19.50;32.30
7317;DHT22;3699;51.462;6.696;2023-06-14T01:07:09;19.50;32.60
7317;DHT22;3699;51.462;6.696;2023-06-14T01:09:50;19.40;32.00
7317;DHT22;3699;51.462;6.696;2023-06-14T01:12:24;19.40;32.20
7317;DHT22;3699;51.462;6.696;2023-06-14T01:14:54;19.30;32.20
7317;DHT22;3699;51.462;6.696;2023-06-14T01:17:22;19.30;31.90
7317;DHT22;3699;51.462;6.696;2023-06-14T01:19:51;19.30;32.10
7317;DHT22;3699;51.462;6.696;2023-06-14T01:22:24;19.30;32.10
7317;DHT22;3699;51.462;6.696;2023-06-14T01:24:52;19.30;31.90
7317;DHT22;3699;51.462;6.696;2023-06-14T01:27:21;19.30;32.20
7317;DHT22;3699;51.462;6.696;2023-06-14T01:29:49;19.30;31.80
7317;DHT22;3699;51.462;6.696;2023-06-14T01:32:17;19.20;31.80
7317;DHT22;3699;51.462;6.696;2023-06-14T01:34:44;19.30;33.00
7317;DHT22;3699;51.462;6.696;2023-06-14T01:37:11;19.30;32.70
7317;DHT22;3699;51.462;6.696;2023-06-14T01:39:39;19.20;32.40
7317;DHT22;3699;51.462;6.696;2023-06-14T01:42:08;19.20;32.60
7317;DHT22;3699;51.462;6.696;2023-06-14T01:44:36;19.20;32.70
7317;DHT22;3699;51.462;6.696;2023-06-14T01:47:04;19.20;32.70
7317;DHT22;3699;51.462;6.696;2023-06-14T01:49:33;19.20;33.80
7317;DHT22;3699;51.462;6.696;2023-06-14T01:52:00;19.10;33.20
7317;DHT22;3699;51.462;6.696;2023-06-14T01:54:27;19.10;33.60
7317;DHT22;3699;51.462;6.696;2023-06-14T01:56:54;19.00;33.10
7317;DHT22;3699;51.462;6.696;2023-06-14T01:59:23;19.00;34.60
7317;DHT22;3699;51.462;6.696;2023-06-14T02:01:49;19.00;34.20
7317;DHT22;3699;51.462;6.696;2023-06-14T02:04:16;18.90;34.30
7317;DHT22;3699;51.462;6.696;2023-06-14T02:06:43;18.90;34.30
7317;DHT22;3699;51.462;6.696;2023-06-14T02:09:10;18.90;34.00
7317;DHT22;3699;51.462;6.696;2023-06-14T02:11:37;18.90;34.60
7317;DHT22;3699;51.462;6.696;2023-06-14T02:14:03;18.80;35.10
7317;DHT22;3699;51.462;6.696;2023-06-14T02:16:33;18.80;33.90
7317;DHT22;3699;51.462;6.696;2023-06-14T02:19:01;18.80;34.30
7317;DHT22;3699;51.462;6.696;2023-06-14T02:21:28;18.70;36.00
7317;DHT22;3699;51.462;6.696;2023-06-14T02:23:54;18.70;35.30
7317;DHT22;3699;51.462;6.696;2023-06-14T02:26:21;18.70;35.20
7317;DHT22;3699;51.462;6.696;2023-06-14T02:28:49;18.60;34.40
7317;DHT22;3699;51.462;6.696;2023-06-14T02:31:15;18.60;34.20
7317;DHT22;3699;51.462;6.696;2023-06-14T02:33:44;18.50;34.50
7317;DHT22;3699;51.462;6.696;2023-06-14T02:36:10;18.50;34.70
7317;DHT22;3699;51.462;6.696;2023-06-14T02:38:37;18.50;34.60
7317;DHT22;3699;51.462;6.696;2023-06-14T02:41:04;18.50;34.60
7317;DHT22;3699;51.462;6.696;2023-06-14T02:43:31;18.50;35.10
7317;DHT22;3699;51.462;6.696;2023-06-14T02:45:58;18.50;35.20
7317;DHT22;3699;51.462;6.696;2023-06-14T02:48:25;18.40;35.20
7317;DHT22;3699;51.462;6.696;2023-06-14T02:50:53;18.40;35.50
7317;DHT22;3699;51.462;6.696;2023-06-14T02:53:19;18.40;37.10
7317;DHT22;3699;51.462;6.696;2023-06-14T02:55:46;18.40;37.10
7317;DHT22;3699;51.462;6.696;2023-06-14T02:58:14;18.40;36.50
7317;DHT22;3699;51.462;6.696;2023-06-14T03:00:41;18.30;36.50
7317;DHT22;3699;51.462;6.696;2023-06-14T03:03:08;18.30;37.00
7317;DHT22;3699;51.462;6.696;2023-06-14T03:05:40;18.30;38.10
7317;DHT22;3699;51.462;6.696;2023-06-14T03:08:12;18.30;40.30
7317;DHT22;3699;51.462;6.696;2023-06-14T03:10:42;18.30;40.80
7317;DHT22;3699;51.462;6.696;2023-06-14T03:13:09;18.20;41.20
7317;DHT22;3699;51.462;6.696;2023-06-14T03:15:37;18.20;41.40
7317;DHT22;3699;51.462;6.696;2023-06-14T03:18:07;18.20;43.30
7317;DHT22;3699;51.462;6.696;2023-06-14T03:20:34;18.10;42.10
7317;DHT22;3699;51.462;6.696;2023-06-14T03:23:01;18.10;43.00
7317;DHT22;3699;51.462;6.696;2023-06-14T03:25:30;18.00;43.90
7317;DHT22;3699;51.462;6.696;2023-06-14T03:27:58;17.90;43.30
7317;DHT22;3699;51.462;6.696;2023-06-14T03:30:25;17.90;45.80
7317;DHT22;3699;51.462;6.696;2023-06-14T03:32:51;17.90;44.00
7317;DHT22;3699;51.462;6.696;2023-06-14T03:35:21;17.90;43.70
7317;DHT22;3699;51.462;6.696;2023-06-14T03:37:47;17.80;45.60
7317;DHT22;3699;51.462;6.696;2023-06-14T03:40:17;17.80;47.10
7317;DHT22;3699;51.462;6.696;2023-06-14T03:42:45;17.80;50.20
7317;DHT22;3699;51.462;6.696;2023-06-14T03:45:12;17.70;52.50
7317;DHT22;3699;51.462;6.696;2023-06-14T03:47:39;17.70;53.00
7317;DHT22;3699;51.462;6.696;2023-06-14T03:50:06;17.70;52.10
7317;DHT22;3699;51.462;6.696;2023-06-14T03:52:33;17.70;52.30
7317;DHT22;3699;51.462;6.696;2023-06-14T03:55:00;17.60;51.20
7317;DHT22;3699;51.462;6.696;2023-06-14T03:57:27;17.60;51.40
7317;DHT22;3699;51.462;6.696;2023-06-14T03:59:55;17.60;52.40
7317;DHT22;3699;51.462;6.696;2023-06-14T04:02:21;17.70;52.10
7317;DHT22;3699;51.462;6.696;2023-06-14T04:04:48;17.70;49.70
7317;DHT22;3699;51.462;6.696;2023-06-14T04:07:17;17.70;51.00
7317;DHT22;3699;51.462;6.696;2023-06-14T04:09:45;17.80;52.30
7317;DHT22;3699;51.462;6.696;2023-06-14T04:12:12;17.90;52.40
7317;DHT22;3699;51.462;6.696;2023-06-14T04:14:39;18.20;48.50
7317;DHT22;3699;51.462;6.696;2023-06-14T04:17:07;18.60;48.60
7317;DHT22;3699;51.462;6.696;2023-06-14T04:19:34;19.10;44.00
7317;DHT22;3699;51.462;6.696;2023-06-14T04:22:01;19.50;42.00
7317;DHT22;3699;51.462;6.696;2023-06-14T04:24:28;19.90;40.70
7317;DHT22;3699;51.462;6.696;2023-06-14T04:26:57;20.20;39.60
7317;DHT22;3699;51.462;6.696;2023-06-14T04:29:24;20.60;37.80
7317;DHT22;3699;51.462;6.696;2023-06-14T04:31:54;20.90;36.60
7317;DHT22;3699;51.462;6.696;2023-06-14T04:34:25;21.20;35.90
7317;DHT22;3699;51.462;6.696;2023-06-14T04:36:55;21.30;35.20
7317;DHT22;3699;51.462;6.696;2023-06-14T04:39:23;21.60;34.90
7317;DHT22;3699;51.462;6.696;2023-06-14T04:41:50;21.80;33.70
7317;DHT22;3699;51.462;6.696;2023-06-14T04:44:18;22.10;33.30
7317;DHT22;3699;51.462;6.696;2023-06-14T04:46:45;22.30;32.40
7317;DHT22;3699;51.462;6.696;2023-06-14T04:49:12;22.40;32.10
7317;DHT22;3699;51.462;6.696;2023-06-14T04:51:42;22.70;31.80
7317;DHT22;3699;51.462;6.696;2023-06-14T04:54:09;22.80;30.30
7317;DHT22;3699;51.462;6.696;2023-06-14T04:56:39;22.80;30.20
7317;DHT22;3699;51.462;6.696;2023-06-14T04:59:05;22.90;30.70
7317;DHT22;3699;51.462;6.696;2023-06-14T05:01:32;23.00;30.00
7317;DHT22;3699;51.462;6.696;2023-06-14T05:03:59;23.20;30.50
7317;DHT22;3699;51.462;6.696;2023-06-14T05:06:26;23.40;30.00
7317;DHT22;3699;51.462;6.696;2023-06-14T05:08:55;23.60;30.00
7317;DHT22;3699;51.462;6.696;2023-06-14T05:11:22;23.70;28.70
7317;DHT22;3699;51.462;6.696;2023-06-14T05:13:49;24.00;34.50
7317;DHT22;3699;51.462;6.696;2023-06-14T05:16:17;23.90;28.70
7317;DHT22;3699;51.462;6.696;2023-06-14T05:18:44;24.10;28.50
7317;DHT22;3699;51.462;6.696;2023-06-14T05:21:13;24.20;28.10
7317;DHT22;3699;51.462;6.696;2023-06-14T05:23:42;24.40;27.90
7317;DHT22;3699;51.462;6.696;2023-06-14T05:26:11;24.60;27.80
7317;DHT22;3699;51.462;6.696;2023-06-14T05:28:38;24.60;26.70
7317;DHT22;3699;51.462;6.696;2023-06-14T05:31:04;24.60;27.10
7317;DHT22;3699;51.462;6.696;2023-06-14T05:33:31;24.70;27.10
7317;DHT22;3699;51.462;6.696;2023-06-14T05:35:58;24.90;27.00
7317;DHT22;3699;51.462;6.696;2023-06-14T05:38:24;25.10;26.00
7317;DHT22;3699;51.462;6.696;2023-06-14T05:40:51;25.10;26.00
7317;DHT22;3699;51.462;6.696;2023-06-14T05:43:20;25.20;26.10
7317;DHT22;3699;51.462;6.696;2023-06-14T05:45:47;25.40;26.30
7317;DHT22;3699;51.462;6.696;2023-06-14T05:48:14;25.60;24.70
7317;DHT22;3699;51.462;6.696;2023-06-14T05:50:40;25.60;25.40
7317;DHT22;3699;51.462;6.696;2023-06-14T05:53:07;25.60;25.10
7317;DHT22;3699;51.462;6.696;2023-06-14T05:55:34;25.70;25.00
7317;DHT22;3699;51.462;6.696;2023-06-14T05:58:01;25.90;24.80
7317;DHT22;3699;51.462;6.696;2023-06-14T06:00:29;26.10;24.60
7317;DHT22;3699;51.462;6.696;2023-06-14T06:02:56;26.20;24.10
7317;DHT22;3699;51.462;6.696;2023-06-14T06:05:23;26.50;24.20
7317;DHT22;3699;51.462;6.696;2023-06-14T06:07:50;26.50;23.80
7317;DHT22;3699;51.462;6.696;2023-06-14T06:10:17;26.50;23.30
7317;DHT22;3699;51.462;6.696;2023-06-14T06:12:44;26.80;23.90
7317;DHT22;3699;51.462;6.696;2023-06-14T06:15:12;27.20;23.50
7317;DHT22;3699;51.462;6.696;2023-06-14T06:17:41;27.30;22.80
7317;DHT22;3699;51.462;6.696;2023-06-14T06:20:08;27.40;22.40
7317;DHT22;3699;51.462;6.696;2023-06-14T06:22:35;27.60;22.10
7317;DHT22;3699;51.462;6.696;2023-06-14T06:25:02;27.50;22.30
7317;DHT22;3699;51.462;6.696;2023-06-14T06:27:29;27.50;22.20
7317;DHT22;3699;51.462;6.696;2023-06-14T06:29:56;27.50;21.90
7317;DHT22;3699;51.462;6.696;2023-06-14T06:32:22;27.60;22.40
7317;DHT22;3699;51.462;6.696;2023-06-14T06:34:50;27.80;22.00
7317;DHT22;3699;51.462;6.696;2023-06-14T06:37:19;28.00;21.10
7317;DHT22;3699;51.462;6.696;2023-06-14T06:39:45;28.10;21.30
7317;DHT22;3699;51.462;6.696;2023-06-14T06:42:13;28.10;21.00
7317;DHT22;3699;51.462;6.696;2023-06-14T06:44:40;28.20;21.00
7317;DHT22;3699;51.462;6.696;2023-06-14T06:47:07;28.20;21.10
7317;DHT22;3699;51.462;6.696;2023-06-14T06:49:35;28.20;20.50
7317;DHT22;3699;51.462;6.696;2023-06-14T06:52:05;28.10;20.10
7317;DHT22;3699;51.462;6.696;2023-06-14T06:54:32;28.00;20.00
7317;DHT22;3699;51.462;6.696;2023-06-14T06:56:59;28.00;20.70
7317;DHT22;3699;51.462;6.696;2023-06-14T06:59:27;27.80;20.50
7317;DHT22;3699;51.462;6.696;2023-06-14T07:01:53;28.20;20.70
7317;DHT22;3699;51.462;6.696;2023-06-14T07:04:20;28.10;19.00
7317;DHT22;3699;51.462;6.696;2023-06-14T07:06:47;27.80;18.80
7317;DHT22;3699;51.462;6.696;2023-06-14T07:09:15;27.70;18.60
7317;DHT22;3699;51.462;6.696;2023-06-14T07:11:43;27.60;19.30
7317;DHT22;3699;51.462;6.696;2023-06-14T07:14:11;27.20;19.70
7317;DHT22;3699;51.462;6.696;2023-06-14T07:16:37;27.20;19.80
7317;DHT22;3699;51.462;6.696;2023-06-14T07:19:04;27.00;20.00
7317;DHT22;3699;51.462;6.696;2023-06-14T07:21:31;27.30;20.60
7317;DHT22;3699;51.462;6.696;2023-06-14T07:23:58;27.00;19.20
7317;DHT22;3699;51.462;6.696;2023-06-14T07:26:26;26.80;22.40
7317;DHT22;3699;51.462;6.696;2023-06-14T07:28:52;26.90;19.50
7317;DHT22;3699;51.462;6.696;2023-06-14T07:31:19;26.60;19.60
7317;DHT22;3699;51.462;6.696;2023-06-14T07:33:46;26.30;20.10
7317;DHT22;3699;51.462;6.696;2023-06-14T07:36:13;26.30;21.40
7317;DHT22;3699;51.462;6.696;2023-06-14T07:38:40;26.30;21.70
7317;DHT22;3699;51.462;6.696;2023-06-14T07:41:07;26.40;21.90
7317;DHT22;3699;51.462;6.696;2023-06-14T07:43:35;26.60;21.10
7317;DHT22;3699;51.462;6.696;2023-06-14T07:46:02;26.70;23.10
7317;DHT22;3699;51.462;6.696;2023-06-14T07:48:29;26.50;20.30
7317;DHT22;3699;51.462;6.696;2023-06-14T07:50:55;26.30;20.60
7317;DHT22;3699;51.462;6.696;2023-06-14T07:53:22;26.10;20.70
7317;DHT22;3699;51.462;6.696;2023-06-14T07:55:49;26.00;21.10
7317;DHT22;3699;51.462;6.696;2023-06-14T07:58:16;25.90;20.80
7317;DHT22;3699;51.462;6.696;2023-06-14T08:00:44;25.90;21.20
7317;DHT22;3699;51.462;6.696;2023-06-14T08:03:11;25.90;20.60
7317;DHT22;3699;51.462;6.696;2023-06-14T08:05:38;25.90;20.50
7317;DHT22;3699;51.462;6.696;2023-06-14T08:08:05;25.90;20.80
7317;DHT22;3699;51.462;6.696;2023-06-14T08:10:32;26.10;20.50
7317;DHT22;3699;51.462;6.696;2023-06-14T08:12:58;26.20;21.20
7317;DHT22;3699;51.462;6.696;2023-06-14T08:15:25;26.40;20.40
7317;DHT22;3699;51.462;6.696;2023-06-14T08:17:53;26.50;20.80
7317;DHT22;3699;51.462;6.696;2023-06-14T08:20:20;26.70;21.30
7317;DHT22;3699;51.462;6.696;2023-06-14T08:22:47;26.90;20.50
7317;DHT22;3699;51.462;6.696;2023-06-14T08:25:13;26.60;20.10
7317;DHT22;3699;51.462;6.696;2023-06-14T08:27:40;26.70;20.80
7317;DHT22;3699;51.462;6.696;2023-06-14T08:30:08;26.70;20.70
7317;DHT22;3699;51.462;6.696;2023-06-14T08:32:35;26.90;20.70
7317;DHT22;3699;51.462;6.696;2023-06-14T08:35:04;26.90;21.20
7317;DHT22;3699;51.462;6.696;2023-06-14T08:37:32;26.80;20.90
7317;DHT22;3699;51.462;6.696;2023-06-14T08:39:59;26.60;20.40
7317;DHT22;3699;51.462;6.696;2023-06-14T08:42:26;26.50;21.00
7317;DHT22;3699;51.462;6.696;2023-06-14T08:44:53;26.50;20.50
7317;DHT22;3699;51.462;6.696;2023-06-14T08:47:20;26.50;20.40
7317;DHT22;3699;51.462;6.696;2023-06-14T08:49:49;26.40;20.50
7317;DHT22;3699;51.462;6.696;2023-06-14T08:52:19;26.60;20.30
7317;DHT22;3699;51.462;6.696;2023-06-14T08:54:48;26.80;20.90
7317;DHT22;3699;51.462;6.696;2023-06-14T08:57:16;27.00;21.40
7317;DHT22;3699;51.462;6.696;2023-06-14T08:59:46;27.10;20.50
7317;DHT22;3699;51.462;6.696;2023-06-14T09:02:15;27.20;20.50
7317;DHT22;3699;51.462;6.696;2023-06-14T09:04:43;27.40;20.80
7317;DHT22;3699;51.462;6.696;2023-06-14T09:07:10;27.50;21.40
7317;DHT22;3699;51.462;6.696;2023-06-14T09:09:40;27.70;20.90
7317;DHT22;3699;51.462;6.696;2023-06-14T09:12:08;27.60;20.10
7317;DHT22;3699;51.462;6.696;2023-06-14T09:14:37;27.50;20.00
7317;DHT22;3699;51.462;6.696;2023-06-14T09:17:06;27.30;20.40
7317;DHT22;3699;51.462;6.696;2023-06-14T09:19:34;27.20;20.20
7317;DHT22;3699;51.462;6.696;2023-06-14T09:22:03;27.30;21.10
7317;DHT22;3699;51.462;6.696;2023-06-14T09:24:30;27.30;21.00
7317;DHT22;3699;51.462;6.696;2023-06-14T09:26:58;27.30;20.40
7317;DHT22;3699;51.462;6.696;2023-06-14T09:29:24;27.10;20.00
7317;DHT22;3699;51.462;6.696;2023-06-14T09:31:53;27.10;20.60
7317;DHT22;3699;51.462;6.696;2023-06-14T09:34:20;27.00;20.20
7317;DHT22;3699;51.462;6.696;2023-06-14T09:36:49;27.00;20.60
7317;DHT22;3699;51.462;6.696;2023-06-14T09:39:17;26.80;20.70
7317;DHT22;3699;51.462;6.696;2023-06-14T09:41:44;26.90;21.60
7317;DHT22;3699;51.462;6.696;2023-06-14T09:44:12;27.00;20.60
7317;DHT22;3699;51.462;6.696;2023-06-14T09:46:39;26.80;20.10
7317;DHT22;3699;51.462;6.696;2023-06-14T09:49:06;26.50;19.20
7317;DHT22;3699;51.462;6.696;2023-06-14T09:51:35;26.40;19.30
7317;DHT22;3699;51.462;6.696;2023-06-14T09:54:04;26.40;20.90
7317;DHT22;3699;51.462;6.696;2023-06-14T09:56:37;26.30;20.20
7317;DHT22;3699;51.462;6.696;2023-06-14T09:59:05;26.40;20.20
7317;DHT22;3699;51.462;6.696;2023-06-14T10:01:35;26.30;19.40
7317;DHT22;3699;51.462;6.696;2023-06-14T10:04:07;26.10;18.90
7317;DHT22;3699;51.462;6.696;2023-06-14T10:06:36;26.20;20.00
7317;DHT22;3699;51.462;6.696;2023-06-14T10:09:04;26.40;20.50
7317;DHT22;3699;51.462;6.696;2023-06-14T10:11:35;26.30;19.50
7317;DHT22;3699;51.462;6.696;2023-06-14T10:14:03;26.50;19.70
7317;DHT22;3699;51.462;6.696;2023-06-14T10:16:34;26.40;18.70
7317;DHT22;3699;51.462;6.696;2023-06-14T10:19:07;26.20;19.60
7317;DHT22;3699;51.462;6.696;2023-06-14T10:21:43;26.20;19.20
7317;DHT22;3699;51.462;6.696;2023-06-14T10:24:16;26.30;20.00
7317;DHT22;3699;51.462;6.696;2023-06-14T10:26:51;26.50;18.40
7317;DHT22;3699;51.462;6.696;2023-06-14T10:29:18;26.40;18.10
7317;DHT22;3699;51.462;6.696;2023-06-14T10:31:47;26.30;18.90
7317;DHT22;3699;51.462;6.696;2023-06-14T10:34:22;26.20;19.00
7317;DHT22;3699;51.462;6.696;2023-06-14T10:37:06;26.00;19.60
7317;DHT22;3699;51.462;6.696;2023-06-14T10:39:38;26.00;20.30
7317;DHT22;3699;51.462;6.696;2023-06-14T10:42:05;26.10;20.10
7317;DHT22;3699;51.462;6.696;2023-06-14T10:44:42;26.00;19.10
7317;DHT22;3699;51.462;6.696;2023-06-14T10:47:21;26.00;19.90
7317;DHT22;3699;51.462;6.696;2023-06-14T10:49:50;25.80;19.80
7317;DHT22;3699;51.462;6.696;2023-06-14T10:52:22;25.90;20.80
7317;DHT22;3699;51.462;6.696;2023-06-14T10:55:08;26.00;19.60
7317;DHT22;3699;51.462;6.696;2023-06-14T10:57:41;26.10;19.70
7317;DHT22;3699;51.462;6.696;2023-06-14T11:00:09;25.90;20.10
7317;DHT22;3699;51.462;6.696;2023-06-14T11:03:17;25.70;22.80
7317;DHT22;3699;51.462;6.696;2023-06-14T11:05:50;25.60;19.50
7317;DHT22;3699;51.462;6.696;2023-06-14T11:11:22;25.50;19.90
7317;DHT22;3699;51.462;6.696;2023-06-14T11:13:49;25.30;19.50
7317;DHT22;3699;51.462;6.696;2023-06-14T11:16:17;25.50;21.00
7317;DHT22;3699;51.462;6.696;2023-06-14T11:18:46;25.80;21.00
7317;DHT22;3699;51.462;6.696;2023-06-14T11:21:15;26.00;20.70
7317;DHT22;3699;51.462;6.696;2023-06-14T11:23:49;26.10;20.80
7317;DHT22;3699;51.462;6.696;2023-06-14T11:26:15;26.30;19.50
7317;DHT22;3699;51.462;6.696;2023-06-14T11:28:42;26.50;19.90
7317;DHT22;3699;51.462;6.696;2023-06-14T11:31:09;26.60;20.30
7317;DHT22;3699;51.462;6.696;2023-06-14T11:33:36;26.70;18.50
7317;DHT22;3699;51.462;6.696;2023-06-14T11:36:05;26.70;18.00
7317;DHT22;3699;51.462;6.696;2023-06-14T11:38:35;26.50;18.20
7317;DHT22;3699;51.462;6.696;2023-06-14T11:41:02;26.50;18.30
7317;DHT22;3699;51.462;6.696;2023-06-14T11:43:29;26.50;19.00
7317;DHT22;3699;51.462;6.696;2023-06-14T11:45:57;26.50;19.90
7317;DHT22;3699;51.462;6.696;2023-06-14T11:48:36;26.60;18.80
7317;DHT22;3699;51.462;6.696;2023-06-14T11:51:04;26.50;18.60
7317;DHT22;3699;51.462;6.696;2023-06-14T11:53:31;26.40;18.60
7317;DHT22;3699;51.462;6.696;2023-06-14T11:55:58;26.50;18.80
7317;DHT22;3699;51.462;6.696;2023-06-14T11:58:25;26.40;18.50
7317;DHT22;3699;51.462;6.696;2023-06-14T12:00:53;26.30;18.50
7317;DHT22;3699;51.462;6.696;2023-06-14T12:03:23;26.20;19.30
7317;DHT22;3699;51.462;6.696;2023-06-14T12:05:50;26.20;18.70
7317;DHT22;3699;51.462;6.696;2023-06-14T12:08:21;26.20;18.80
7317;DHT22;3699;51.462;6.696;2023-06-14T12:10:58;26.30;19.40
7317;DHT22;3699;51.462;6.696;2023-06-14T12:13:25;26.40;19.60
7317;DHT22;3699;51.462;6.696;2023-06-14T12:15:56;26.40;19.50
7317;DHT22;3699;51.462;6.696;2023-06-14T12:18:31;26.40;19.40
7317;DHT22;3699;51.462;6.696;2023-06-14T12:21:00;26.30;19.60
7317;DHT22;3699;51.462;6.696;2023-06-14T12:23:39;26.30;19.60
7317;DHT22;3699;51.462;6.696;2023-06-14T12:26:05;26.10;19.60
7317;DHT22;3699;51.462;6.696;2023-06-14T12:28:33;26.20;20.10
7317;DHT22;3699;51.462;6.696;2023-06-14T12:30:59;26.20;20.10
7317;DHT22;3699;51.462;6.696;2023-06-14T12:33:26;26.30;20.10
7317;DHT22;3699;51.462;6.696;2023-06-14T12:35:55;26.30;19.90
7317;DHT22;3699;51.462;6.696;2023-06-14T12:38:22;26.30;19.20
7317;DHT22;3699;51.462;6.696;2023-06-14T12:40:50;26.30;19.30
7317;DHT22;3699;51.462;6.696;2023-06-14T12:43:18;26.20;19.90
7317;DHT22;3699;51.462;6.696;2023-06-14T12:45:44;26.10;20.70
7317;DHT22;3699;51.462;6.696;2023-06-14T12:48:11;26.20;20.90
7317;DHT22;3699;51.462;6.696;2023-06-14T12:50:38;26.40;20.70
7317;DHT22;3699;51.462;6.696;2023-06-14T12:53:05;26.60;20.80
7317;DHT22;3699;51.462;6.696;2023-06-14T12:55:32;26.60;20.00
7317;DHT22;3699;51.462;6.696;2023-06-14T12:58:00;26.50;19.20
7317;DHT22;3699;51.462;6.696;2023-06-14T13:00:27;26.60;20.40
7317;DHT22;3699;51.462;6.696;2023-06-14T13:02:55;26.70;20.10
7317;DHT22;3699;51.462;6.696;2023-06-14T13:05:22;26.70;20.60
7317;DHT22;3699;51.462;6.696;2023-06-14T13:07:48;26.60;20.30
7317;DHT22;3699;51.462;6.696;2023-06-14T13:10:15;26.60;21.20
7317;DHT22;3699;51.462;6.696;2023-06-14T13:12:42;26.80;21.10
7317;DHT22;3699;51.462;6.696;2023-06-14T13:15:11;26.80;21.00
7317;DHT22;3699;51.462;6.696;2023-06-14T13:17:37;26.90;20.40
7317;DHT22;3699;51.462;6.696;2023-06-14T13:20:05;26.90;21.00
7317;DHT22;3699;51.462;6.696;2023-06-14T13:22:32;26.90;20.50
7317;DHT22;3699;51.462;6.696;2023-06-14T13:24:59;26.60;20.60
7317;DHT22;3699;51.462;6.696;2023-06-14T13:27:26;26.60;20.80
7317;DHT22;3699;51.462;6.696;2023-06-14T13:29:53;26.70;20.90
7317;DHT22;3699;51.462;6.696;2023-06-14T13:32:22;26.80;20.50
7317;DHT22;3699;51.462;6.696;2023-06-14T13:34:49;26.80;21.10
7317;DHT22;3699;51.462;6.696;2023-06-14T13:37:17;26.80;21.00
7317;DHT22;3699;51.462;6.696;2023-06-14T13:39:43;27.00;20.80
7317;DHT22;3699;51.462;6.696;2023-06-14T13:42:10;26.90;20.70
7317;DHT22;3699;51.462;6.696;2023-06-14T13:44:37;27.10;20.30
7317;DHT22;3699;51.462;6.696;2023-06-14T13:47:05;27.00;20.60
7317;DHT22;3699;51.462;6.696;2023-06-14T13:49:33;26.90;20.60
7317;DHT22;3699;51.462;6.696;2023-06-14T13:52:01;27.00;20.80
7317;DHT22;3699;51.462;6.696;2023-06-14T13:54:28;27.00;21.10
7317;DHT22;3699;51.462;6.696;2023-06-14T13:56:55;27.10;21.40
7317;DHT22;3699;51.462;6.696;2023-06-14T13:59:21;27.10;20.30
7317;DHT22;3699;51.462;6.696;2023-06-14T14:01:48;27.10;20.30
7317;DHT22;3699;51.462;6.696;2023-06-14T14:04:15;27.30;19.80
7317;DHT22;3699;51.462;6.696;2023-06-14T14:06:43;27.20;20.30
7317;DHT22;3699;51.462;6.696;2023-06-14T14:09:11;27.40;20.60
7317;DHT22;3699;51.462;6.696;2023-06-14T14:11:38;27.20;20.70
7317;DHT22;3699;51.462;6.696;2023-06-14T14:14:07;26.90;20.20
7317;DHT22;3699;51.462;6.696;2023-06-14T14:16:33;27.30;21.60
7317;DHT22;3699;51.462;6.696;2023-06-14T14:19:01;27.30;20.70
7317;DHT22;3699;51.462;6.696;2023-06-14T14:21:28;27.20;20.00
7317;DHT22;3699;51.462;6.696;2023-06-14T14:23:56;27.00;19.50
7317;DHT22;3699;51.462;6.696;2023-06-14T14:26:23;27.10;19.90
7317;DHT22;3699;51.462;6.696;2023-06-14T14:28:50;27.20;20.30
7317;DHT22;3699;51.462;6.696;2023-06-14T14:31:17;27.30;19.60
7317;DHT22;3699;51.462;6.696;2023-06-14T14:33:44;27.40;19.70
7317;DHT22;3699;51.462;6.696;2023-06-14T14:36:10;27.40;20.20
7317;DHT22;3699;51.462;6.696;2023-06-14T14:38:37;27.20;19.80
7317;DHT22;3699;51.462;6.696;2023-06-14T14:41:06;27.20;19.70
7317;DHT22;3699;51.462;6.696;2023-06-14T14:43:32;27.10;19.50
7317;DHT22;3699;51.462;6.696;2023-06-14T14:45:59;27.00;20.00
7317;DHT22;3699;51.462;6.696;2023-06-14T14:48:26;27.00;20.20
7317;DHT22;3699;51.462;6.696;2023-06-14T14:50:52;27.00;20.30
7317;DHT22;3699;51.462;6.696;2023-06-14T14:53:19;27.00;20.00
7317;DHT22;3699;51.462;6.696;2023-06-14T14:55:46;27.00;20.30
7317;DHT22;3699;51.462;6.696;2023-06-14T14:58:14;26.90;20.70
7317;DHT22;3699;51.462;6.696;2023-06-14T15:00:43;26.80;20.30
7317;DHT22;3699;51.462;6.696;2023-06-14T15:03:10;26.80;20.30
7317;DHT22;3699;51.462;6.696;2023-06-14T15:05:37;26.60;20.50
7317;DHT22;3699;51.462;6.696;2023-06-14T15:08:04;26.80;21.40
7317;DHT22;3699;51.462;6.696;2023-06-14T15:10:35;26.80;20.90
7317;DHT22;3699;51.462;6.696;2023-06-14T15:13:02;26.80;20.90
7317;DHT22;3699;51.462;6.696;2023-06-14T15:15:30;26.70;20.20
7317;DHT22;3699;51.462;6.696;2023-06-14T15:17:57;26.70;20.90
7317;DHT22;3699;51.462;6.696;2023-06-14T15:20:24;26.60;20.90
7317;DHT22;3699;51.462;6.696;2023-06-14T15:22:50;26.30;20.80
7317;DHT22;3699;51.462;6.696;2023-06-14T15:25:17;26.20;21.30
7317;DHT22;3699;51.462;6.696;2023-06-14T15:27:45;26.10;20.70
7317;DHT22;3699;51.462;6.696;2023-06-14T15:30:12;26.10;21.90
7317;DHT22;3699;51.462;6.696;2023-06-14T15:32:40;25.90;21.40
7317;DHT22;3699;51.462;6.696;2023-06-14T15:35:07;25.70;21.70
7317;DHT22;3699;51.462;6.696;2023-06-14T15:37:34;25.70;21.50
7317;DHT22;3699;51.462;6.696;2023-06-14T15:40:01;25.80;21.90
7317;DHT22;3699;51.462;6.696;2023-06-14T15:42:27;25.70;21.60
7317;DHT22;3699;51.462;6.696;2023-06-14T15:44:54;25.60;21.80
7317;DHT22;3699;51.462;6.696;2023-06-14T15:47:21;25.60;21.50
7317;DHT22;3699;51.462;6.696;2023-06-14T15:49:49;25.50;21.60
7317;DHT22;3699;51.462;6.696;2023-06-14T15:52:16;25.50;22.10
7317;DHT22;3699;51.462;6.696;2023-06-14T15:54:42;25.60;25.60
7317;DHT22;3699;51.462;6.696;2023-06-14T15:57:09;25.70;22.00
7317;DHT22;3699;51.462;6.696;2023-06-14T15:59:37;25.70;22.20
7317;DHT22;3699;51.462;6.696;2023-06-14T16:02:04;25.70;21.80
7317;DHT22;3699;51.462;6.696;2023-06-14T16:04:31;25.90;21.90
7317;DHT22;3699;51.462;6.696;2023-06-14T16:06:59;25.70;20.90
7317;DHT22;3699;51.462;6.696;2023-06-14T16:09:25;25.70;21.80